sensor_id;sensor_type;location;lat;lon;timestamp;P1;durP1;ratioP1;P2;durP2;ratioP2
63688;SDS011;54895;40.928;14.480;2023-02-15T00:00:05;74.45;;;45.33;;
63688;SDS011;54895;40.928;14.480;2023-02-15T00:02:36;73.55;;;45.22;;
63688;SDS011;54895;40.928;14.480;2023-02-15T00:05:02;73.03;;;44.90;;
63688;SDS011;54895;40.928;14.480;2023-02-15T00:07:29;68.22;;;42.60;;
63688;SDS011;54895;40.928;14.480;2023-02-15T00:09:55;76.13;;;46.42;;
63688;SDS011;54895;40.928;14.480;2023-02-15T00:12:21;80.47;;;48.75;;
63688;SDS011;54895;40.928;14.480;2023-02-15T00:14:48;75.85;;;47.65;;
63688;SDS011;54895;40.928;14.480;2023-02-15T00:17:14;84.13;;;50.53;;
63688;SDS011;54895;40.928;14.480;2023-02-15T00:19:41;80.97;;;48.38;;
63688;SDS011;54895;40.928;14.480;2023-02-15T00:22:07;78.25;;;48.03;;
63688;SDS011;54895;40.928;14.480;2023-02-15T00:24:33;90.63;;;54.67;;
63688;SDS011;54895;40.928;14.480;2023-02-15T00:27:00;87.10;;;51.13;;
63688;SDS011;54895;40.928;14.480;2023-02-15T00:29:26;85.85;;;52.75;;
63688;SDS011;54895;40.928;14.480;2023-02-15T00:31:53;81.75;;;50.22;;
63688;SDS011;54895;40.928;14.480;2023-02-15T00:34:24;81.18;;;49.90;;
63688;SDS011;54895;40.928;14.480;2023-02-15T00:36:52;86.63;;;50.67;;
63688;SDS011;54895;40.928;14.480;2023-02-15T00:39:19;81.03;;;49.08;;
63688;SDS011;54895;40.928;14.480;2023-02-15T00:41:45;86.45;;;53.90;;
63688;SDS011;54895;40.928;14.480;2023-02-15T00:44:13;78.53;;;48.15;;
63688;SDS011;54895;40.928;14.480;2023-02-15T00:46:40;80.93;;;49.55;;
63688;SDS011;54895;40.928;14.480;2023-02-15T00:49:08;81.10;;;50.25;;
63688;SDS011;54895;40.928;14.480;2023-02-15T00:51:35;83.25;;;50.65;;
63688;SDS011;54895;40.928;14.480;2023-02-15T00:54:02;79.95;;;52.45;;
63688;SDS011;54895;40.928;14.480;2023-02-15T00:56:29;85.90;;;51.65;;
63688;SDS011;54895;40.928;14.480;2023-02-15T00:58:55;80.60;;;50.97;;
63688;SDS011;54895;40.928;14.480;2023-02-15T01:01:22;82.10;;;51.13;;
63688;SDS011;54895;40.928;14.480;2023-02-15T01:03:50;75.07;;;45.00;;
63688;SDS011;54895;40.928;14.480;2023-02-15T01:06:17;69.28;;;44.55;;
63688;SDS011;54895;40.928;14.480;2023-02-15T01:08:44;77.53;;;47.13;;
63688;SDS011;54895;40.928;14.480;2023-02-15T01:11:13;78.43;;;49.35;;
63688;SDS011;54895;40.928;14.480;2023-02-15T01:13:41;89.60;;;51.55;;
63688;SDS011;54895;40.928;14.480;2023-02-15T01:16:07;91.30;;;52.88;;
63688;SDS011;54895;40.928;14.480;2023-02-15T01:18:34;82.47;;;49.30;;
63688;SDS011;54895;40.928;14.480;2023-02-15T01:21:08;85.95;;;51.15;;
63688;SDS011;54895;40.928;14.480;2023-02-15T01:23:35;87.03;;;50.13;;
63688;SDS011;54895;40.928;14.480;2023-02-15T01:26:03;81.53;;;50.78;;
63688;SDS011;54895;40.928;14.480;2023-02-15T01:28:29;76.53;;;47.53;;
63688;SDS011;54895;40.928;14.480;2023-02-15T01:30:55;77.13;;;47.70;;
63688;SDS011;54895;40.928;14.480;2023-02-15T01:33:22;82.72;;;49.13;;
63688;SDS011;54895;40.928;14.480;2023-02-15T01:35:48;83.93;;;50.67;;
63688;SDS011;54895;40.928;14.480;2023-02-15T01:38:15;76.45;;;49.05;;
63688;SDS011;54895;40.928;14.480;2023-02-15T01:40:42;85.05;;;51.80;;
63688;SDS011;54895;40.928;14.480;2023-02-15T01:43:09;84.75;;;53.03;;
63688;SDS011;54895;40.928;14.480;2023-02-15T01:45:37;79.65;;;49.20;;
63688;SDS011;54895;40.928;14.480;2023-02-15T01:50:37;82.25;;;50.15;;
63688;SDS011;54895;40.928;14.480;2023-02-15T01:58:21;88.80;;;50.78;;
63688;SDS011;54895;40.928;14.480;2023-02-15T02:00:51;85.20;;;51.47;;
63688;SDS011;54895;40.928;14.480;2023-02-15T02:03:20;95.10;;;54.97;;
63688;SDS011;54895;40.928;14.480;2023-02-15T02:05:58;87.57;;;52.60;;
63688;SDS011;54895;40.928;14.480;2023-02-15T02:08:25;82.50;;;49.97;;
63688;SDS011;54895;40.928;14.480;2023-02-15T02:10:53;90.43;;;55.15;;
63688;SDS011;54895;40.928;14.480;2023-02-15T02:13:20;93.38;;;56.65;;
63688;SDS011;54895;40.928;14.480;2023-02-15T02:15:55;79.88;;;49.15;;
63688;SDS011;54895;40.928;14.480;2023-02-15T02:23:43;85.47;;;47.92;;
63688;SDS011;54895;40.928;14.480;2023-02-15T02:37:30;78.65;;;48.22;;
63688;SDS011;54895;40.928;14.480;2023-02-15T02:40:25;73.78;;;47.78;;
63688;SDS011;54895;40.928;14.480;2023-02-15T02:43:26;78.97;;;51.47;;
63688;SDS011;54895;40.928;14.480;2023-02-15T02:52:47;65.57;;;41.97;;
63688;SDS011;54895;40.928;14.480;2023-02-15T03:00:34;68.82;;;45.47;;
63688;SDS011;54895;40.928;14.480;2023-02-15T03:03:12;64.53;;;39.45;;
63688;SDS011;54895;40.928;14.480;2023-02-15T03:05:44;59.63;;;38.20;;
63688;SDS011;54895;40.928;14.480;2023-02-15T03:08:14;73.07;;;44.20;;
63688;SDS011;54895;40.928;14.480;2023-02-15T03:10:51;64.75;;;43.10;;
63688;SDS011;54895;40.928;14.480;2023-02-15T03:13:20;68.40;;;42.20;;
63688;SDS011;54895;40.928;14.480;2023-02-15T03:15:47;67.63;;;41.38;;
63688;SDS011;54895;40.928;14.480;2023-02-15T03:18:36;70.47;;;44.33;;
63688;SDS011;54895;40.928;14.480;2023-02-15T03:21:07;68.78;;;43.47;;
63688;SDS011;54895;40.928;14.480;2023-02-15T03:23:52;72.00;;;43.97;;
63688;SDS011;54895;40.928;14.480;2023-02-15T03:26:25;79.07;;;44.22;;
63688;SDS011;54895;40.928;14.480;2023-02-15T03:28:54;67.63;;;42.47;;
63688;SDS011;54895;40.928;14.480;2023-02-15T03:31:23;73.47;;;43.75;;
63688;SDS011;54895;40.928;14.480;2023-02-15T03:33:58;66.25;;;42.22;;
63688;SDS011;54895;40.928;14.480;2023-02-15T03:41:55;69.40;;;41.42;;
63688;SDS011;54895;40.928;14.480;2023-02-15T03:44:27;69.75;;;41.47;;
63688;SDS011;54895;40.928;14.480;2023-02-15T03:47:00;61.35;;;41.30;;
63688;SDS011;54895;40.928;14.480;2023-02-15T03:52:45;70.28;;;42.90;;
63688;SDS011;54895;40.928;14.480;2023-02-15T03:55:11;65.57;;;41.67;;
63688;SDS011;54895;40.928;14.480;2023-02-15T03:57:38;69.05;;;43.45;;
63688;SDS011;54895;40.928;14.480;2023-02-15T04:00:24;62.80;;;38.92;;
63688;SDS011;54895;40.928;14.480;2023-02-15T04:03:11;75.10;;;48.15;;
63688;SDS011;54895;40.928;14.480;2023-02-15T04:05:42;74.63;;;45.10;;
63688;SDS011;54895;40.928;14.480;2023-02-15T04:08:10;66.75;;;41.88;;
63688;SDS011;54895;40.928;14.480;2023-02-15T04:10:38;63.58;;;40.33;;
63688;SDS011;54895;40.928;14.480;2023-02-15T04:15:56;63.15;;;40.95;;
63688;SDS011;54895;40.928;14.480;2023-02-15T04:18:32;62.25;;;41.50;;
63688;SDS011;54895;40.928;14.480;2023-02-15T04:21:19;65.45;;;39.90;;
63688;SDS011;54895;40.928;14.480;2023-02-15T04:24:05;63.13;;;39.63;;
63688;SDS011;54895;40.928;14.480;2023-02-15T04:26:50;65.10;;;39.97;;
63688;SDS011;54895;40.928;14.480;2023-02-15T04:29:20;61.70;;;37.47;;
63688;SDS011;54895;40.928;14.480;2023-02-15T04:31:48;59.30;;;37.08;;
63688;SDS011;54895;40.928;14.480;2023-02-15T04:34:15;58.55;;;37.10;;
63688;SDS011;54895;40.928;14.480;2023-02-15T04:36:42;65.95;;;42.30;;
63688;SDS011;54895;40.928;14.480;2023-02-15T04:39:09;61.83;;;40.20;;
63688;SDS011;54895;40.928;14.480;2023-02-15T04:41:38;59.90;;;38.70;;
63688;SDS011;54895;40.928;14.480;2023-02-15T04:44:05;69.13;;;40.33;;
63688;SDS011;54895;40.928;14.480;2023-02-15T04:46:31;60.35;;;40.08;;
63688;SDS011;54895;40.928;14.480;2023-02-15T04:52:56;62.70;;;37.80;;
63688;SDS011;54895;40.928;14.480;2023-02-15T04:55:23;67.22;;;40.13;;
63688;SDS011;54895;40.928;14.480;2023-02-15T04:57:49;67.80;;;40.60;;
63688;SDS011;54895;40.928;14.480;2023-02-15T05:00:15;61.40;;;38.80;;
63688;SDS011;54895;40.928;14.480;2023-02-15T05:02:42;60.53;;;37.55;;
63688;SDS011;54895;40.928;14.480;2023-02-15T05:05:08;60.55;;;36.25;;
63688;SDS011;54895;40.928;14.480;2023-02-15T05:07:38;60.90;;;36.92;;
63688;SDS011;54895;40.928;14.480;2023-02-15T05:10:05;60.75;;;35.28;;
63688;SDS011;54895;40.928;14.480;2023-02-15T05:12:31;56.17;;;34.63;;
63688;SDS011;54895;40.928;14.480;2023-02-15T05:14:58;55.13;;;33.88;;
63688;SDS011;54895;40.928;14.480;2023-02-15T05:17:24;53.00;;;33.90;;
63688;SDS011;54895;40.928;14.480;2023-02-15T05:19:50;52.03;;;31.25;;
63688;SDS011;54895;40.928;14.480;2023-02-15T05:22:16;49.67;;;28.45;;
63688;SDS011;54895;40.928;14.480;2023-02-15T05:24:43;45.83;;;27.40;;
63688;SDS011;54895;40.928;14.480;2023-02-15T05:27:27;41.28;;;25.55;;
63688;SDS011;54895;40.928;14.480;2023-02-15T05:30:12;36.72;;;23.58;;
63688;SDS011;54895;40.928;14.480;2023-02-15T05:32:39;34.58;;;23.35;;
63688;SDS011;54895;40.928;14.480;2023-02-15T05:35:06;37.22;;;22.95;;
63688;SDS011;54895;40.928;14.480;2023-02-15T05:37:33;43.53;;;24.38;;
63688;SDS011;54895;40.928;14.480;2023-02-15T05:40:00;39.65;;;23.85;;
63688;SDS011;54895;40.928;14.480;2023-02-15T05:42:26;40.83;;;23.95;;
63688;SDS011;54895;40.928;14.480;2023-02-15T05:44:52;40.58;;;23.88;;
63688;SDS011;54895;40.928;14.480;2023-02-15T05:47:18;40.42;;;22.77;;
63688;SDS011;54895;40.928;14.480;2023-02-15T05:55:25;39.35;;;23.40;;
63688;SDS011;54895;40.928;14.480;2023-02-15T05:57:52;37.17;;;23.90;;
63688;SDS011;54895;40.928;14.480;2023-02-15T06:00:18;38.85;;;24.13;;
63688;SDS011;54895;40.928;14.480;2023-02-15T06:02:45;38.95;;;24.58;;
63688;SDS011;54895;40.928;14.480;2023-02-15T06:05:11;41.17;;;23.40;;
63688;SDS011;54895;40.928;14.480;2023-02-15T06:07:38;42.80;;;25.77;;
63688;SDS011;54895;40.928;14.480;2023-02-15T06:10:04;44.97;;;26.80;;
63688;SDS011;54895;40.928;14.480;2023-02-15T06:12:31;45.90;;;28.00;;
63688;SDS011;54895;40.928;14.480;2023-02-15T06:14:57;44.08;;;26.27;;
63688;SDS011;54895;40.928;14.480;2023-02-15T06:17:23;44.40;;;25.98;;
63688;SDS011;54895;40.928;14.480;2023-02-15T06:19:50;43.72;;;25.63;;
63688;SDS011;54895;40.928;14.480;2023-02-15T06:22:16;44.83;;;26.95;;
63688;SDS011;54895;40.928;14.480;2023-02-15T06:24:42;46.83;;;26.30;;
63688;SDS011;54895;40.928;14.480;2023-02-15T06:27:09;42.17;;;25.25;;
63688;SDS011;54895;40.928;14.480;2023-02-15T06:29:35;38.53;;;24.95;;
63688;SDS011;54895;40.928;14.480;2023-02-15T06:32:02;44.42;;;25.63;;
63688;SDS011;54895;40.928;14.480;2023-02-15T06:34:28;39.42;;;24.88;;
63688;SDS011;54895;40.928;14.480;2023-02-15T06:36:54;44.42;;;27.13;;
63688;SDS011;54895;40.928;14.480;2023-02-15T06:39:21;42.05;;;26.45;;
63688;SDS011;54895;40.928;14.480;2023-02-15T06:41:47;48.95;;;27.08;;
63688;SDS011;54895;40.928;14.480;2023-02-15T06:44:13;46.30;;;26.13;;
63688;SDS011;54895;40.928;14.480;2023-02-15T06:46:40;45.85;;;28.75;;
63688;SDS011;54895;40.928;14.480;2023-02-15T06:52:56;43.80;;;27.88;;
63688;SDS011;54895;40.928;14.480;2023-02-15T06:55:26;44.50;;;27.13;;
63688;SDS011;54895;40.928;14.480;2023-02-15T06:57:53;49.20;;;28.33;;
63688;SDS011;54895;40.928;14.480;2023-02-15T07:00:19;54.70;;;31.35;;
63688;SDS011;54895;40.928;14.480;2023-02-15T07:02:47;48.78;;;29.48;;
63688;SDS011;54895;40.928;14.480;2023-02-15T07:05:24;54.55;;;30.98;;
63688;SDS011;54895;40.928;14.480;2023-02-15T07:07:57;50.10;;;29.40;;
63688;SDS011;54895;40.928;14.480;2023-02-15T07:10:23;51.63;;;29.55;;
63688;SDS011;54895;40.928;14.480;2023-02-15T07:12:51;55.20;;;31.08;;
63688;SDS011;54895;40.928;14.480;2023-02-15T07:15:17;58.75;;;32.90;;
63688;SDS011;54895;40.928;14.480;2023-02-15T07:17:46;57.95;;;32.30;;
63688;SDS011;54895;40.928;14.480;2023-02-15T07:20:15;57.25;;;30.85;;
63688;SDS011;54895;40.928;14.480;2023-02-15T07:22:44;53.47;;;30.88;;
63688;SDS011;54895;40.928;14.480;2023-02-15T07:25:11;56.35;;;31.17;;
63688;SDS011;54895;40.928;14.480;2023-02-15T07:27:39;55.40;;;31.55;;
63688;SDS011;54895;40.928;14.480;2023-02-15T07:30:07;51.10;;;31.83;;
63688;SDS011;54895;40.928;14.480;2023-02-15T07:32:35;51.33;;;31.92;;
63688;SDS011;54895;40.928;14.480;2023-02-15T07:35:02;53.97;;;33.65;;
63688;SDS011;54895;40.928;14.480;2023-02-15T07:37:31;55.47;;;33.70;;
63688;SDS011;54895;40.928;14.480;2023-02-15T07:39:57;53.15;;;33.33;;
63688;SDS011;54895;40.928;14.480;2023-02-15T07:42:24;53.47;;;33.33;;
63688;SDS011;54895;40.928;14.480;2023-02-15T07:44:51;55.53;;;32.95;;
63688;SDS011;54895;40.928;14.480;2023-02-15T07:47:18;51.80;;;30.95;;
63688;SDS011;54895;40.928;14.480;2023-02-15T07:53:33;55.70;;;32.60;;
63688;SDS011;54895;40.928;14.480;2023-02-15T07:56:02;55.15;;;32.13;;
63688;SDS011;54895;40.928;14.480;2023-02-15T07:58:30;56.28;;;32.97;;
63688;SDS011;54895;40.928;14.480;2023-02-15T08:01:15;54.38;;;32.45;;
63688;SDS011;54895;40.928;14.480;2023-02-15T08:03:41;57.05;;;33.65;;
63688;SDS011;54895;40.928;14.480;2023-02-15T08:06:07;57.78;;;34.28;;
63688;SDS011;54895;40.928;14.480;2023-02-15T08:08:34;53.40;;;31.77;;
63688;SDS011;54895;40.928;14.480;2023-02-15T08:11:02;55.35;;;31.45;;
63688;SDS011;54895;40.928;14.480;2023-02-15T08:13:50;61.70;;;31.85;;
63688;SDS011;54895;40.928;14.480;2023-02-15T08:18:55;57.05;;;33.05;;
63688;SDS011;54895;40.928;14.480;2023-02-15T08:21:25;55.67;;;31.17;;
63688;SDS011;54895;40.928;14.480;2023-02-15T08:23:55;54.83;;;28.98;;
63688;SDS011;54895;40.928;14.480;2023-02-15T08:26:23;48.00;;;26.80;;
63688;SDS011;54895;40.928;14.480;2023-02-15T08:28:51;51.67;;;26.83;;
63688;SDS011;54895;40.928;14.480;2023-02-15T08:31:17;43.20;;;25.42;;
63688;SDS011;54895;40.928;14.480;2023-02-15T08:33:44;39.70;;;24.25;;
63688;SDS011;54895;40.928;14.480;2023-02-15T08:36:13;38.72;;;24.38;;
63688;SDS011;54895;40.928;14.480;2023-02-15T08:38:41;38.92;;;24.17;;
63688;SDS011;54895;40.928;14.480;2023-02-15T08:41:10;41.60;;;25.25;;
63688;SDS011;54895;40.928;14.480;2023-02-15T08:46:09;55.97;;;30.48;;
63688;SDS011;54895;40.928;14.480;2023-02-15T08:48:36;45.65;;;28.15;;
63688;SDS011;54895;40.928;14.480;2023-02-15T08:53:51;45.83;;;27.10;;
63688;SDS011;54895;40.928;14.480;2023-02-15T08:56:20;31.83;;;20.50;;
63688;SDS011;54895;40.928;14.480;2023-02-15T08:58:48;29.58;;;19.55;;
63688;SDS011;54895;40.928;14.480;2023-02-15T09:01:16;26.50;;;17.48;;
63688;SDS011;54895;40.928;14.480;2023-02-15T09:03:45;25.00;;;16.42;;
63688;SDS011;54895;40.928;14.480;2023-02-15T09:06:13;22.58;;;12.95;;
63688;SDS011;54895;40.928;14.480;2023-02-15T09:08:40;40.30;;;24.80;;
63688;SDS011;54895;40.928;14.480;2023-02-15T09:11:08;50.53;;;29.85;;
63688;SDS011;54895;40.928;14.480;2023-02-15T09:13:35;35.42;;;21.90;;
63688;SDS011;54895;40.928;14.480;2023-02-15T09:16:03;37.90;;;21.83;;
63688;SDS011;54895;40.928;14.480;2023-02-15T09:18:32;29.23;;;16.92;;
63688;SDS011;54895;40.928;14.480;2023-02-15T09:21:08;29.90;;;18.08;;
63688;SDS011;54895;40.928;14.480;2023-02-15T09:23:42;33.65;;;19.55;;
63688;SDS011;54895;40.928;14.480;2023-02-15T09:26:13;29.35;;;17.48;;
63688;SDS011;54895;40.928;14.480;2023-02-15T09:28:41;30.38;;;18.02;;
63688;SDS011;54895;40.928;14.480;2023-02-15T09:31:14;31.75;;;17.02;;
63688;SDS011;54895;40.928;14.480;2023-02-15T09:33:42;28.98;;;17.45;;
63688;SDS011;54895;40.928;14.480;2023-02-15T09:36:23;31.73;;;19.25;;
63688;SDS011;54895;40.928;14.480;2023-02-15T09:38:57;35.30;;;20.17;;
63688;SDS011;54895;40.928;14.480;2023-02-15T10:11:15;24.10;;;14.77;;
63688;SDS011;54895;40.928;14.480;2023-02-15T10:14:07;24.83;;;14.63;;
63688;SDS011;54895;40.928;14.480;2023-02-15T10:27:49;16.58;;;10.00;;
63688;SDS011;54895;40.928;14.480;2023-02-15T10:30:34;19.30;;;10.55;;
63688;SDS011;54895;40.928;14.480;2023-02-15T10:33:56;18.75;;;11.90;;
63688;SDS011;54895;40.928;14.480;2023-02-15T10:50:10;20.55;;;11.32;;
63688;SDS011;54895;40.928;14.480;2023-02-15T10:55:43;20.08;;;12.60;;
63688;SDS011;54895;40.928;14.480;2023-02-15T10:58:17;21.38;;;12.07;;
63688;SDS011;54895;40.928;14.480;2023-02-15T11:00:51;20.17;;;12.38;;
63688;SDS011;54895;40.928;14.480;2023-02-15T11:03:45;20.85;;;12.52;;
63688;SDS011;54895;40.928;14.480;2023-02-15T11:06:15;24.90;;;12.20;;
63688;SDS011;54895;40.928;14.480;2023-02-15T11:08:48;21.17;;;12.55;;
63688;SDS011;54895;40.928;14.480;2023-02-15T11:11:23;19.08;;;12.27;;
63688;SDS011;54895;40.928;14.480;2023-02-15T11:13:52;20.42;;;11.32;;
63688;SDS011;54895;40.928;14.480;2023-02-15T11:16:25;26.35;;;11.80;;
63688;SDS011;54895;40.928;14.480;2023-02-15T11:21:38;29.50;;;12.07;;
63688;SDS011;54895;40.928;14.480;2023-02-15T11:24:09;18.80;;;10.73;;
63688;SDS011;54895;40.928;14.480;2023-02-15T11:26:43;19.35;;;11.48;;
63688;SDS011;54895;40.928;14.480;2023-02-15T11:35:03;21.63;;;11.48;;
63688;SDS011;54895;40.928;14.480;2023-02-15T11:37:45;23.63;;;13.00;;
63688;SDS011;54895;40.928;14.480;2023-02-15T11:40:19;23.33;;;11.95;;
63688;SDS011;54895;40.928;14.480;2023-02-15T11:42:48;23.02;;;12.63;;
63688;SDS011;54895;40.928;14.480;2023-02-15T11:45:29;20.50;;;12.98;;
63688;SDS011;54895;40.928;14.480;2023-02-15T11:47:58;22.52;;;12.35;;
63688;SDS011;54895;40.928;14.480;2023-02-15T11:53:54;22.35;;;11.65;;
63688;SDS011;54895;40.928;14.480;2023-02-15T11:56:23;23.25;;;13.55;;
63688;SDS011;54895;40.928;14.480;2023-02-15T11:59:06;24.50;;;13.95;;
63688;SDS011;54895;40.928;14.480;2023-02-15T12:01:45;25.10;;;14.60;;
63688;SDS011;54895;40.928;14.480;2023-02-15T12:04:20;27.08;;;14.50;;
63688;SDS011;54895;40.928;14.480;2023-02-15T12:06:55;31.90;;;15.00;;
63688;SDS011;54895;40.928;14.480;2023-02-15T12:09:32;24.15;;;14.27;;
63688;SDS011;54895;40.928;14.480;2023-02-15T12:14:55;21.50;;;12.65;;
63688;SDS011;54895;40.928;14.480;2023-02-15T12:17:24;28.52;;;14.90;;
63688;SDS011;54895;40.928;14.480;2023-02-15T12:19:58;23.88;;;13.30;;
63688;SDS011;54895;40.928;14.480;2023-02-15T12:22:28;23.85;;;13.75;;
63688;SDS011;54895;40.928;14.480;2023-02-15T12:24:59;24.95;;;13.88;;
63688;SDS011;54895;40.928;14.480;2023-02-15T12:27:33;20.20;;;13.02;;
63688;SDS011;54895;40.928;14.480;2023-02-15T12:30:03;26.15;;;13.48;;
63688;SDS011;54895;40.928;14.480;2023-02-15T12:32:53;23.98;;;14.05;;
63688;SDS011;54895;40.928;14.480;2023-02-15T12:35:33;25.08;;;13.70;;
63688;SDS011;54895;40.928;14.480;2023-02-15T12:38:03;23.40;;;13.40;;
63688;SDS011;54895;40.928;14.480;2023-02-15T12:40:56;20.63;;;12.73;;
63688;SDS011;54895;40.928;14.480;2023-02-15T12:43:35;23.38;;;13.20;;
63688;SDS011;54895;40.928;14.480;2023-02-15T12:46:14;23.27;;;13.75;;
63688;SDS011;54895;40.928;14.480;2023-02-15T12:49:18;21.92;;;12.98;;
63688;SDS011;54895;40.928;14.480;2023-02-15T12:51:47;26.67;;;14.75;;
63688;SDS011;54895;40.928;14.480;2023-02-15T12:54:17;26.85;;;14.52;;
63688;SDS011;54895;40.928;14.480;2023-02-15T12:56:58;22.27;;;13.63;;
63688;SDS011;54895;40.928;14.480;2023-02-15T12:59:26;21.92;;;13.57;;
63688;SDS011;54895;40.928;14.480;2023-02-15T13:01:53;23.25;;;15.05;;
63688;SDS011;54895;40.928;14.480;2023-02-15T13:04:26;24.33;;;15.80;;
63688;SDS011;54895;40.928;14.480;2023-02-15T13:06:57;23.05;;;13.88;;
63688;SDS011;54895;40.928;14.480;2023-02-15T13:14:45;25.35;;;15.75;;
63688;SDS011;54895;40.928;14.480;2023-02-15T13:17:13;22.75;;;14.65;;
63688;SDS011;54895;40.928;14.480;2023-02-15T13:19:47;31.58;;;17.55;;
63688;SDS011;54895;40.928;14.480;2023-02-15T13:22:22;28.40;;;16.55;;
63688;SDS011;54895;40.928;14.480;2023-02-15T13:24:56;28.35;;;16.33;;
63688;SDS011;54895;40.928;14.480;2023-02-15T13:27:36;26.70;;;16.00;;
63688;SDS011;54895;40.928;14.480;2023-02-15T13:30:10;27.60;;;17.38;;
63688;SDS011;54895;40.928;14.480;2023-02-15T13:32:48;26.48;;;17.88;;
63688;SDS011;54895;40.928;14.480;2023-02-15T13:35:17;33.08;;;18.45;;
63688;SDS011;54895;40.928;14.480;2023-02-15T13:37:49;29.70;;;16.40;;
63688;SDS011;54895;40.928;14.480;2023-02-15T13:40:30;28.30;;;17.13;;
63688;SDS011;54895;40.928;14.480;2023-02-15T13:48:29;21.98;;;14.50;;
63688;SDS011;54895;40.928;14.480;2023-02-15T14:02:17;27.40;;;16.35;;
63688;SDS011;54895;40.928;14.480;2023-02-15T14:13:02;23.48;;;14.35;;
63688;SDS011;54895;40.928;14.480;2023-02-15T14:18:34;23.92;;;15.18;;
63688;SDS011;54895;40.928;14.480;2023-02-15T14:21:19;24.83;;;15.80;;
63688;SDS011;54895;40.928;14.480;2023-02-15T14:26:54;23.33;;;14.45;;
63688;SDS011;54895;40.928;14.480;2023-02-15T14:35:18;21.25;;;13.45;;
63688;SDS011;54895;40.928;14.480;2023-02-15T14:40:45;22.02;;;12.98;;
63688;SDS011;54895;40.928;14.480;2023-02-15T14:49:27;22.70;;;13.35;;
63688;SDS011;54895;40.928;14.480;2023-02-15T14:51:58;19.58;;;12.77;;
63688;SDS011;54895;40.928;14.480;2023-02-15T15:02:41;22.40;;;13.53;;
63688;SDS011;54895;40.928;14.480;2023-02-15T15:05:24;20.80;;;13.15;;
63688;SDS011;54895;40.928;14.480;2023-02-15T15:07:58;23.67;;;13.40;;
63688;SDS011;54895;40.928;14.480;2023-02-15T15:10:37;42.92;;;14.18;;
63688;SDS011;54895;40.928;14.480;2023-02-15T15:19:13;20.25;;;12.00;;
63688;SDS011;54895;40.928;14.480;2023-02-15T15:22:17;22.77;;;11.90;;
63688;SDS011;54895;40.928;14.480;2023-02-15T15:24:46;20.75;;;12.13;;
63688;SDS011;54895;40.928;14.480;2023-02-15T15:30:06;20.50;;;12.45;;
63688;SDS011;54895;40.928;14.480;2023-02-15T15:49:21;16.55;;;10.85;;
63688;SDS011;54895;40.928;14.480;2023-02-15T15:51:50;21.75;;;11.32;;
63688;SDS011;54895;40.928;14.480;2023-02-15T15:54:18;17.55;;;10.52;;
63688;SDS011;54895;40.928;14.480;2023-02-15T15:56:48;17.48;;;10.13;;
63688;SDS011;54895;40.928;14.480;2023-02-15T15:59:21;16.05;;;8.60;;
63688;SDS011;54895;40.928;14.480;2023-02-15T16:01:53;22.45;;;10.55;;
63688;SDS011;54895;40.928;14.480;2023-02-15T16:04:28;17.73;;;10.73;;
63688;SDS011;54895;40.928;14.480;2023-02-15T16:06:57;17.83;;;11.13;;
63688;SDS011;54895;40.928;14.480;2023-02-15T16:09:25;17.30;;;10.02;;
63688;SDS011;54895;40.928;14.480;2023-02-15T16:11:56;18.83;;;10.40;;
63688;SDS011;54895;40.928;14.480;2023-02-15T16:14:31;20.70;;;10.85;;
63688;SDS011;54895;40.928;14.480;2023-02-15T16:17:01;14.45;;;9.73;;
63688;SDS011;54895;40.928;14.480;2023-02-15T16:19:34;22.63;;;10.90;;
63688;SDS011;54895;40.928;14.480;2023-02-15T16:22:05;18.95;;;10.13;;
63688;SDS011;54895;40.928;14.480;2023-02-15T16:30:17;16.58;;;10.05;;
63688;SDS011;54895;40.928;14.480;2023-02-15T16:32:43;20.02;;;11.75;;
63688;SDS011;54895;40.928;14.480;2023-02-15T16:35:13;22.95;;;15.68;;
63688;SDS011;54895;40.928;14.480;2023-02-15T16:37:41;29.52;;;17.90;;
63688;SDS011;54895;40.928;14.480;2023-02-15T16:43:00;23.70;;;11.60;;
63688;SDS011;54895;40.928;14.480;2023-02-15T16:45:29;16.67;;;11.55;;
63688;SDS011;54895;40.928;14.480;2023-02-15T16:47:58;25.42;;;13.18;;
63688;SDS011;54895;40.928;14.480;2023-02-15T16:50:31;29.48;;;15.98;;
63688;SDS011;54895;40.928;14.480;2023-02-15T16:53:02;30.08;;;16.05;;
63688;SDS011;54895;40.928;14.480;2023-02-15T16:55:37;28.40;;;16.48;;
63688;SDS011;54895;40.928;14.480;2023-02-15T16:58:07;28.42;;;16.88;;
63688;SDS011;54895;40.928;14.480;2023-02-15T17:00:39;33.63;;;16.50;;
63688;SDS011;54895;40.928;14.480;2023-02-15T17:05:45;39.30;;;23.05;;
63688;SDS011;54895;40.928;14.480;2023-02-15T17:13:25;39.83;;;25.67;;
63688;SDS011;54895;40.928;14.480;2023-02-15T17:18:47;45.23;;;27.17;;
63688;SDS011;54895;40.928;14.480;2023-02-15T17:21:13;48.72;;;25.90;;
63688;SDS011;54895;40.928;14.480;2023-02-15T17:23:48;42.70;;;23.10;;
63688;SDS011;54895;40.928;14.480;2023-02-15T17:26:27;42.42;;;24.75;;
63688;SDS011;54895;40.928;14.480;2023-02-15T17:29:00;37.63;;;22.95;;
63688;SDS011;54895;40.928;14.480;2023-02-15T17:31:36;36.40;;;22.80;;
63688;SDS011;54895;40.928;14.480;2023-02-15T17:34:03;40.80;;;23.45;;
63688;SDS011;54895;40.928;14.480;2023-02-15T17:36:30;38.47;;;22.40;;
63688;SDS011;54895;40.928;14.480;2023-02-15T17:41:31;39.72;;;21.67;;
63688;SDS011;54895;40.928;14.480;2023-02-15T17:44:01;38.65;;;22.15;;
63688;SDS011;54895;40.928;14.480;2023-02-15T17:46:29;38.90;;;23.85;;
63688;SDS011;54895;40.928;14.480;2023-02-15T17:49:00;40.80;;;25.35;;
63688;SDS011;54895;40.928;14.480;2023-02-15T17:54:10;45.17;;;26.70;;
63688;SDS011;54895;40.928;14.480;2023-02-15T17:56:55;47.08;;;27.95;;
63688;SDS011;54895;40.928;14.480;2023-02-15T17:59:21;55.05;;;34.03;;
63688;SDS011;54895;40.928;14.480;2023-02-15T18:01:48;50.45;;;30.35;;
63688;SDS011;54895;40.928;14.480;2023-02-15T18:04:33;49.20;;;28.23;;
63688;SDS011;54895;40.928;14.480;2023-02-15T18:07:20;45.95;;;28.90;;
63688;SDS011;54895;40.928;14.480;2023-02-15T18:10:16;48.47;;;30.80;;
63688;SDS011;54895;40.928;14.480;2023-02-15T18:13:02;51.80;;;31.33;;
63688;SDS011;54895;40.928;14.480;2023-02-15T18:15:29;46.83;;;29.60;;
63688;SDS011;54895;40.928;14.480;2023-02-15T18:17:55;52.72;;;33.70;;
63688;SDS011;54895;40.928;14.480;2023-02-15T18:20:26;51.33;;;33.35;;
63688;SDS011;54895;40.928;14.480;2023-02-15T18:22:57;67.20;;;34.08;;
63688;SDS011;54895;40.928;14.480;2023-02-15T18:25:24;61.25;;;32.65;;
63688;SDS011;54895;40.928;14.480;2023-02-15T18:27:50;53.28;;;30.88;;
63688;SDS011;54895;40.928;14.480;2023-02-15T18:30:18;48.47;;;32.15;;
63688;SDS011;54895;40.928;14.480;2023-02-15T18:32:47;50.22;;;31.23;;
63688;SDS011;54895;40.928;14.480;2023-02-15T18:35:17;53.63;;;31.05;;
63688;SDS011;54895;40.928;14.480;2023-02-15T18:37:45;49.90;;;31.13;;
63688;SDS011;54895;40.928;14.480;2023-02-15T18:40:16;49.97;;;31.33;;
63688;SDS011;54895;40.928;14.480;2023-02-15T18:42:43;64.72;;;35.70;;
63688;SDS011;54895;40.928;14.480;2023-02-15T18:45:14;64.10;;;39.38;;